Latest Weather Observations for Kingaroy

IDQ60901

Issued at 5:41 pm EST Tuesday 10 December 2019 (issued every 10 minutes, with the page automatically refreshed every 10 minutes)

About weather observations | Map of Brisbane area stations | Latest observations for Brisbane area | Other Formats
Station Details ID: 040922 Name: KINGAROY AIRPORT Lat: -26.57 Lon: 151.84 Height: 433.67 m
Data from the previous 72 hours. | See also: Recent months at Kingaroy
Date/Time
EST
Temp
°C
App
Temp
°C
Dew
Point
°C
Rel
Hum
%
Delta-T
°C
Wind Press
QNH
hPa
Press
MSL
hPa
Rain since
9am
mm
Dir  Spd
km/h
Gust
km/h
Spd
kts
Gust
kts
10/05:30pm 33.1 32.2 12.7 29 12.4 N 9 11 5 6 1014.5 1012.1 0.0
10/05:00pm 33.1 32.8 13.2 30 12.2 N 7 15 4 8 1014.3 1011.9 0.0
10/04:30pm 33.8 33.5 12.7 27 12.9 NE 6 11 3 6 1014.3 1011.9 0.0
10/04:00pm 33.5 33.0 12.5 28 12.8 ENE 7 11 4 6 1014.6 1012.2 0.0
10/03:30pm 34.2 32.9 12.5 27 13.2 ESE 11 19 6 10 1014.6 1012.2 0.0
10/03:00pm 34.4 33.7 13.3 28 13.0 SSW 9 17 5 9 1015.0 1012.7 0.0
10/02:30pm 34.8 34.4 14.1 28 12.9 NW 9 15 5 8 1015.5 1013.2 0.0
10/02:00pm 33.5 32.1 14.5 31 11.9 WNW 15 20 8 11 1016.1 1013.8 0.0
10/01:30pm 33.0 32.8 14.6 33 11.5 W 9 17 5 9 1016.7 1014.3 0.0
10/01:00pm 31.6 30.0 13.8 34 10.9 W 15 20 8 11 1017.1 1014.8 0.0
10/12:30pm 31.0 30.5 15.0 38 10.0 NW 11 20 6 11 1017.5 1015.2 0.0
10/12:00pm 30.4 29.9 16.0 41 9.1 N 13 20 7 11 1018.1 1015.8 0.0
10/11:30am 29.7 29.9 15.8 43 8.7 NNE 9 15 5 8 1018.8 1016.4 0.0
10/11:00am 29.3 29.0 16.5 46 8.1 NW 13 20 7 11 1019.3 1017.0 0.0
10/10:30am 27.7 26.9 16.0 49 7.3 NNW 15 26 8 14 1019.7 1017.4 0.0
10/10:00am 26.7 26.1 16.6 54 6.4 N 15 26 8 14 1020.0 1017.7 0.0
10/09:30am 26.4 26.3 16.9 56 6.0 NNW 13 19 7 10 1020.0 1017.7 0.0
10/09:00am 25.6 24.6 16.7 58 5.6 N 17 26 9 14 1020.4 1018.1 0.0
10/08:30am 24.8 24.3 16.8 61 5.0 NNE 15 22 8 12 1020.4 1018.1 0.0
10/08:00am 23.8 23.1 17.3 67 4.1 NNE 17 24 9 13 1020.3 1018.0 0.0
10/07:30am 22.6 22.4 17.7 74 3.1 N 15 20 8 11 1020.4 1018.1 0.0
10/07:26am 22.4 22.2 17.5 74 3.1 N 15 20 8 11 1020.5 1018.2 0.0
10/07:00am 22.0 21.9 17.8 77 2.6 N 15 24 8 13 1020.4 1018.1 0.0
10/06:30am 21.1 23.4 18.5 85 1.7 NNW 4 9 2 5 1020.3 1018.0 0.0
10/06:10am 20.9 23.4 19.0 89 1.2 ENE 4 9 2 5 1020.0 1017.7 0.0
10/06:00am 20.6 22.5 18.9 90 1.1 ENE 7 11 4 6 1019.6 1017.3 0.0
10/05:30am 19.8 21.3 19.0 95 0.5 NE 9 13 5 7 1019.7 1017.4 0.0
10/05:00am 19.6 21.1 18.8 95 0.5 NE 9 15 5 8 1019.7 1017.4 0.0
10/04:55am 19.5 21.2 18.5 94 0.6 NE 7 13 4 7 1019.7 1017.4 0.0
10/04:30am 19.9 22.0 18.9 94 0.6 ENE 6 9 3 5 1019.5 1017.2 0.0
10/04:00am 19.2 21.8 18.4 95 0.5 ENE 2 7 1 4 1019.3 1017.0 0.0
10/03:49am 19.1 20.9 18.3 95 0.5 ENE 6 7 3 4 1019.2 1016.9 0.0
10/03:30am 18.9 21.4 17.2 90 1.1 CALM 0 6 0 3 1019.1 1016.7 0.0
10/03:00am 19.0 20.0 16.8 87 1.3 E 7 9 4 5 1019.1 1016.7 0.0
10/02:30am 19.5 21.4 17.6 89 1.2 ENE 4 7 2 4 1019.1 1016.7 0.0
10/02:00am 20.1 21.7 18.2 89 1.2 NNE 7 9 4 5 1019.1 1016.7 0.0
10/01:30am 19.9 22.5 17.5 86 1.5 CALM 0 0 0 0 1019.3 1017.0 0.0
10/01:00am 20.5 21.9 17.3 82 2.0 NE 6 7 3 4 1019.6 1017.3 0.0
10/12:30am 21.1 22.2 18.1 83 1.9 NNE 9 11 5 6 1019.8 1017.5 0.0
10/12:00am 21.5 22.6 18.1 81 2.1 NNE 9 15 5 8 1020.1 1017.8 0.0
 
Date/Time
EST
Temp
°C
App
Temp
°C
Dew
Point
°C
Rel
Hum
%
Delta-T
°C
Wind Press
QNH
hPa
Press
MSL
hPa
Rain since
9am
mm
Dir  Spd
km/h
Gust
km/h
Spd
kts
Gust
kts
09/11:30pm 21.6 23.0 17.8 79 2.4 NE 7 11 4 6 1020.5 1018.2 0.0
09/11:00pm 21.5 22.8 17.1 76 2.7 NE 6 7 3 4 1020.8 1018.5 0.0
09/10:30pm 22.2 23.6 17.3 74 3.1 NE 6 7 3 4 1021.0 1018.7 0.0
09/10:00pm 22.9 24.2 17.6 72 3.3 ENE 7 11 4 6 1021.4 1019.1 0.0
09/09:30pm 23.3 24.2 17.5 70 3.7 ENE 9 15 5 8 1021.4 1019.1 0.0
09/09:00pm 23.8 23.8 17.3 67 4.1 ENE 13 28 7 15 1020.9 1018.6 0.0
09/08:30pm 24.3 24.8 17.5 66 4.3 ENE 11 19 6 10 1021.0 1018.7 0.0
09/08:00pm 24.9 25.6 17.9 65 4.5 ENE 11 20 6 11 1021.0 1018.7 0.0
09/07:30pm 25.6 25.6 18.0 63 4.9 E 15 26 8 14 1020.5 1018.2 0.0
09/07:00pm 26.4 26.1 18.3 61 5.2 E 17 30 9 16 1020.1 1017.8 0.0
09/06:30pm 27.5 27.4 17.9 55 6.2 ENE 15 24 8 13 1019.4 1017.1 0.0
09/06:00pm 28.7 28.2 16.9 48 7.5 ENE 15 30 8 16 1018.9 1016.5 0.0
09/05:30pm 30.1 28.9 16.1 42 8.9 NE 17 28 9 15 1018.4 1016.1 0.0
09/05:00pm 31.9 30.5 14.5 34 10.8 NE 15 24 8 13 1017.9 1015.6 0.0
09/04:30pm 32.7 31.4 14.8 34 11.2 NE 15 22 8 12 1017.7 1015.4 0.0
09/04:00pm 32.0 30.5 14.2 34 11.0 ENE 15 28 8 15 1017.8 1015.5 0.0
09/03:30pm 32.0 30.5 14.2 34 11.0 ENE 15 24 8 13 1018.0 1015.7 0.0
09/03:00pm 33.3 32.1 13.9 31 12.0 ENE 13 26 7 14 1018.1 1015.8 0.0
09/02:30pm 33.6 32.4 14.1 30 12.1 NNE 13 28 7 15 1018.3 1016.0 0.0
09/02:00pm 32.7 30.7 13.8 31 11.6 NNE 17 26 9 14 1018.8 1016.4 0.0
09/01:30pm 33.6 31.5 13.6 29 12.3 ENE 17 24 9 13 1019.2 1016.9 0.0
09/01:00pm 32.2 30.6 13.9 33 11.3 ENE 15 24 8 13 1019.5 1017.2 0.0
09/12:30pm 33.1 32.7 15.1 33 11.3 NE 11 20 6 11 1020.0 1017.7 0.0
09/12:00pm 31.6 30.5 14.3 35 10.7 E 13 20 7 11 1020.3 1018.0 0.0
09/11:30am 31.2 30.4 15.2 38 10.0 NE 13 24 7 13 1020.8 1018.5 0.0
09/11:00am 31.8 31.7 16.9 40 9.6 E 13 22 7 12 1021.3 1019.0 0.0
09/10:30am 29.3 28.8 15.8 44 8.5 NE 13 22 7 12 1021.6 1019.3 0.0
09/10:00am 28.9 28.8 16.1 46 8.0 E 11 19 6 10 1021.9 1019.6 0.0
09/09:30am 28.1 28.3 16.7 50 7.2 NE 11 20 6 11 1022.3 1020.0 0.0
09/09:00am 26.3 26.3 16.3 54 6.2 NE 11 17 6 9 1022.3 1020.0 0.0
09/08:30am 25.9 25.8 17.0 58 5.6 E 13 20 7 11 1022.3 1020.0 0.0
09/08:00am 25.5 25.5 18.2 64 4.7 E 15 20 8 11 1022.2 1019.9 0.0
09/07:35am 24.6 25.0 18.1 67 4.2 E 13 20 7 11 1022.3 1020.0 0.0
09/07:30am 25.0 25.0 18.9 69 4.0 E 17 20 9 11 1022.3 1020.0 0.0
09/07:00am 23.8 24.9 19.7 78 2.7 E 13 20 7 11 1021.9 1019.6 0.0
09/06:30am 22.3 22.1 19.3 83 1.9 ESE 19 24 10 13 1021.6 1019.3 0.0
09/06:00am 21.9 22.4 20.0 89 1.2 ESE 17 24 9 13 1021.1 1018.9 0.0
09/05:30am 21.3 22.6 20.1 93 0.8 ESE 13 20 7 11 1020.7 1018.4 0.0
09/05:00am 20.9 22.5 19.9 94 0.6 ESE 11 15 6 8 1020.4 1018.1 0.0
09/04:41am 20.7 22.5 19.5 93 0.8 ESE 9 15 5 8 1020.1 1017.8 0.0
09/04:30am 20.8 22.6 19.5 92 0.8 ESE 9 13 5 7 1020.0 1017.7 0.0
09/04:00am 21.0 22.9 19.7 92 0.8 ESE 9 13 5 7 1020.0 1017.7 0.0
09/03:30am 21.1 23.3 19.6 91 1.0 ENE 7 11 4 6 1020.1 1017.8 0.0
09/03:00am 20.9 23.1 19.7 93 0.8 ENE 7 13 4 7 1020.3 1018.0 0.0
09/02:48am 20.8 22.6 19.6 93 0.8 ENE 9 13 5 7 1020.3 1018.0 0.0
09/02:30am 20.8 22.6 19.6 93 0.8 ENE 9 13 5 7 1020.4 1018.1 0.0
09/02:05am 20.8 21.5 18.9 89 1.2 E 13 17 7 9 1020.4 1018.1 0.0
09/02:00am 21.0 21.8 19.1 89 1.2 E 13 15 7 8 1020.4 1018.1 0.0
09/01:30am 21.3 23.1 19.6 90 1.1 E 9 13 5 7 1020.5 1018.2 0.0
09/01:18am 21.2 22.6 19.5 90 1.1 E 11 15 6 8 1020.5 1018.2 0.0
09/01:00am 20.7 22.5 18.8 89 1.2 ESE 7 11 4 6 1020.6 1018.3 0.0
09/12:30am 21.0 23.0 19.1 89 1.2 SE 7 9 4 5 1020.7 1018.4 0.0
09/12:00am 21.0 23.0 18.8 87 1.4 SE 6 9 3 5 1021.0 1018.7 0.0
 
Date/Time
EST
Temp
°C
App
Temp
°C
Dew
Point
°C
Rel
Hum
%
Delta-T
°C
Wind Press
QNH
hPa
Press
MSL
hPa
Rain since
9am
mm
Dir  Spd
km/h
Gust
km/h
Spd
kts
Gust
kts
08/11:30pm 21.5 23.0 18.9 85 1.7 ESE 9 13 5 7 1021.1 1018.9 0.0
08/11:00pm 21.8 23.3 18.8 83 1.9 E 9 13 5 7 1021.1 1018.9 0.0
08/10:30pm 22.2 23.0 19.0 82 2.1 E 13 19 7 10 1021.4 1019.1 0.0
08/10:00pm 22.5 23.7 19.1 81 2.2 ENE 11 19 6 10 1021.0 1018.7 0.0
08/09:30pm 22.8 24.3 19.0 79 2.5 ENE 9 13 5 7 1021.4 1019.1 0.0
08/09:00pm 23.2 23.7 19.2 78 2.6 E 15 24 8 13 1020.7 1018.4 0.0
08/08:30pm 23.7 23.8 19.2 76 2.9 E 17 24 9 13 1020.0 1017.7 0.0
08/08:00pm 23.9 24.4 19.2 75 3.0 ENE 15 28 8 15 1019.7 1017.4 0.0
08/07:30pm 24.3 25.3 19.4 74 3.2 ENE 13 20 7 11 1019.7 1017.4 0.0
08/07:00pm 24.8 25.4 19.4 72 3.5 E 15 28 8 15 1018.9 1016.5 0.0
08/06:30pm 25.2 24.5 18.2 65 4.5 E 19 30 10 16 1018.0 1015.7 0.0
08/06:00pm 26.5 23.8 12.9 43 8.1 E 19 28 10 15 1016.7 1014.3 0.0
08/05:30pm 27.0 22.7 14.4 46 7.7 E 30 50 16 27 1016.1 1013.8 0.0
08/05:00pm 30.4 26.5 18.8 50 7.6 E 37 61 20 33 1014.8 1012.4 0.0
08/04:53pm 31.8 28.0 18.0 43 9.0 E 35 61 19 33 1014.3 1011.9 0.0
08/04:46pm 32.6 29.1 15.6 36 10.8 E 28 44 15 24 1013.8 1011.5 0.0
08/04:30pm 32.4 30.9 15.4 36 10.7 SSE 17 26 9 14 1013.1 1010.8 0.0
08/04:00pm 32.3 30.4 15.7 36 10.5 SE 20 33 11 18 1013.8 1011.5 0.0
08/03:30pm 32.3 28.7 13.0 31 11.8 S 24 41 13 22 1013.6 1011.3 0.0
08/03:00pm 35.8 33.2 9.3 20 15.5 NNW 13 22 7 12 1013.8 1011.5 0.0
08/02:30pm 35.6 32.2 9.2 20 15.4 NW 17 24 9 13 1014.0 1011.6 0.0
08/02:00pm 35.6 33.7 10.6 22 14.9 NNE 11 24 6 13 1014.6 1012.2 0.0
08/01:30pm 36.5 35.3 13.9 26 14.2 ENE 13 24 7 13 1014.9 1012.5 0.0
08/01:00pm 34.7 33.5 14.0 28 12.9 NE 13 24 7 13 1015.2 1012.9 0.0
08/12:30pm 34.5 34.2 15.4 32 12.1 NE 11 22 6 12 1015.7 1013.4 0.0
08/12:00pm 33.5 33.9 16.4 36 11.0 NE 9 17 5 9 1016.1 1013.8 0.0
08/11:30am 32.8 32.8 16.2 37 10.6 NNE 11 17 6 9 1016.5 1014.1 0.0
08/11:00am 32.3 32.1 16.6 39 10.1 ENE 13 22 7 12 1016.9 1014.5 0.0
08/10:30am 31.5 32.2 17.0 41 9.3 NE 9 20 5 11 1017.3 1015.0 0.0
08/10:00am 29.7 30.2 17.5 48 7.9 ESE 11 22 6 12 1017.4 1015.1 0.0
08/09:30am 29.4 29.8 17.2 47 7.8 NE 11 19 6 10 1017.7 1015.4 0.0
08/09:00am 28.5 29.5 17.7 52 6.9 NNE 9 17 5 9 1017.7 1015.4 0.0
08/08:30am 27.4 28.0 17.8 55 6.2 ENE 11 19 6 10 1017.8 1015.5 0.0
08/08:00am 26.4 27.7 18.5 62 5.1 ENE 9 19 5 10 1017.8 1015.5 0.0
08/07:30am 25.8 27.7 19.7 69 4.0 ENE 9 15 5 8 1017.7 1015.4 0.0
08/07:00am 24.4 25.9 19.0 72 3.5 ENE 9 15 5 8 1017.6 1015.3 0.0
08/06:30am 24.1 25.4 19.2 74 3.2 ENE 11 19 6 10 1017.3 1015.0 0.0
08/06:00am 23.1 25.3 19.7 81 2.2 ENE 7 13 4 7 1016.8 1014.4 0.0
08/05:30am 22.5 25.0 19.9 85 1.7 E 6 9 3 5 1016.5 1014.1 0.0
08/05:00am 22.7 25.1 20.0 85 1.8 E 7 11 4 6 1016.2 1013.9 0.0
08/04:39am 22.7 25.7 20.0 85 1.8 E 4 7 2 4 1015.7 1013.4 0.0
08/04:30am 22.6 25.5 19.8 84 1.8 ENE 4 9 2 5 1015.7 1013.4 0.0
08/04:08am 22.4 24.8 19.6 84 1.8 E 6 7 3 4 1015.4 1013.1 0.0
08/04:00am 22.5 24.7 19.5 83 1.9 ESE 7 15 4 8 1015.3 1013.0 0.0
08/03:30am 22.9 25.0 20.1 84 1.8 ESE 9 13 5 7 1014.9 1012.5 0.0
08/03:00am 22.7 24.8 20.2 86 1.6 ESE 9 17 5 9 1014.5 1012.1 0.0
08/02:30am 22.3 24.4 20.2 88 1.4 ESE 9 15 5 8 1014.3 1011.9 0.0
08/02:00am 22.2 23.8 19.9 87 1.5 SE 11 17 6 9 1014.4 1012.0 0.0
08/01:54am 22.2 24.4 20.3 89 1.2 SE 9 17 5 9 1014.4 1012.0 0.0
08/01:30am 22.1 23.5 19.6 86 1.6 ESE 11 17 6 9 1014.3 1011.9 0.0
08/01:00am 22.6 24.5 19.8 84 1.8 SE 9 13 5 7 1014.4 1012.0 0.0
08/12:30am 23.3 25.1 19.5 79 2.5 SE 9 15 5 8 1014.3 1011.9 0.0
08/12:00am 23.9 24.7 19.0 74 3.2 ESE 13 19 7 10 1014.5 1012.1 0.0
 
Date/Time
EST
Temp
°C
App
Temp
°C
Dew
Point
°C
Rel
Hum
%
Delta-T
°C
Wind Press
QNH
hPa
Press
MSL
hPa
Rain since
9am
mm
Dir  Spd
km/h
Gust
km/h
Spd
kts
Gust
kts
07/11:30pm 22.5 21.9 12.2 52 5.9 NE 7 15 4 8 1014.7 1012.3 0.0
07/11:00pm 24.2 23.6 12.2 47 7.0 E 7 9 4 5 1014.7 1012.3 0.0
07/10:30pm 24.6 23.7 10.8 42 7.9 E 6 9 3 5 1014.7 1012.3 0.0
07/10:00pm 25.7 24.8 10.7 39 8.6 ESE 6 9 3 5 1014.3 1011.9 0.0
07/09:30pm 27.1 25.5 11.6 38 9.0 N 11 17 6 9 1013.7 1011.4 0.0
07/09:00pm 27.4 25.6 12.2 39 9.0 N 13 17 7 9 1013.3 1011.0 0.0
07/08:30pm 27.5 26.0 11.9 38 9.2 N 11 17 6 9 1013.1 1010.8 0.0
07/08:00pm 29.4 26.2 11.9 34 10.4 N 20 30 11 16 1012.7 1010.3 0.0
07/07:30pm 30.2 30.0 16.6 44 8.7 NNE 13 19 7 10 1012.0 1009.6 0.0
07/07:00pm 31.6 27.8 -5.1 9 16.6 SW 6 11 3 6 1010.9 1008.6 0.0
07/06:30pm 34.4 30.3 -6.3 7 18.4 WSW 7 9 4 5 1010.3 1007.9 0.0
07/06:00pm 36.6 32.7 -6.8 6 19.9 W 6 9 3 5 1010.0 1007.6 0.0

Latest Capital City Observations: Canberra | Sydney | Melbourne | Brisbane | Adelaide | Perth | Hobart | Darwin

Other formats

Comma delimited format used in spreadsheet applications
http://www.bom.gov.au/fwo/IDQ60901/IDQ60901.94549.axf

JavaScript Object Notation format (JSON) in row-major order
http://www.bom.gov.au/fwo/IDQ60901/IDQ60901.94549.json

Data quality

Most of these data are generated automatically and are frequently updated. Quality checks on data are not normally performed. It is possible for incorrect values to appear. Refer to information at About Latest Weather Observations and please check the disclaimer before using these data.